Time;durP1;ratioP1;P1;durP2;ratioP2;P2;SDS_P1;SDS_P2;PMS_P1;PMS_P2;Temp;Humidity;BMP_temperature;BMP_pressure;BME280_temperature;BME280_humidity;BME280_pressure;Samples;Min_cycle;Max_cycle;Signal;HPM_P1;HPM_P2
2022/01/15 00:00:36;;;;;;;9.70;4.37;;;1.70;99.90;;;;;;5039240;28;20657;-85
2022/01/15 00:03:06;;;;;;;15.40;5.40;;;1.70;99.90;;;;;;5073519;28;20655;-84
2022/01/15 00:05:32;;;;;;;9.73;4.13;;;1.60;99.90;;;;;;5073643;28;20186;-84
2022/01/15 00:07:59;;;;;;;13.73;6.57;;;1.60;99.90;;;;;;5073258;28;20639;-84
2022/01/15 00:10:27;;;;;;;13.53;4.70;;;1.60;99.90;;;;;;5056112;28;20206;-84
2022/01/15 00:12:57;;;;;;;14.30;5.20;;;1.90;99.90;;;;;;5073476;28;20179;-85
2022/01/15 00:15:31;;;;;;;10.43;4.77;;;;;;;;;;5038847;28;20187;-84
2022/01/15 00:18:04;;;;;;;16.53;7.37;;;;;;;;;;5073384;28;20156;-84
2022/01/15 00:20:31;;;;;;;13.33;6.17;;;;;;;;;;5079028;28;20243;-89
2022/01/15 00:22:59;;;;;;;14.20;5.50;;;1.50;99.90;;;;;;5067636;28;20230;-85
2022/01/15 00:25:26;;;;;;;12.60;4.83;;;1.60;99.90;;;;;;5101931;28;20168;-85
2022/01/15 00:27:53;;;;;;;16.33;6.13;;;;;;;;;;5084305;28;20163;-87
2022/01/15 00:30:19;;;;;;;13.70;5.40;;;1.40;99.90;;;;;;5084529;28;20160;-84
2022/01/15 00:32:46;;;;;;;12.67;5.37;;;;;;;;;;5101335;28;20155;-86
2022/01/15 00:35:13;;;;;;;18.37;4.97;;;1.40;99.90;;;;;;5083855;28;20219;-84
2022/01/15 00:37:40;;;;;;;9.87;4.10;;;1.40;99.90;;;;;;5100823;28;20223;-86
2022/01/15 00:40:08;;;;;;;18.30;5.57;;;1.20;99.90;;;;;;5101498;28;20154;-85
2022/01/15 00:42:36;;;;;;;15.90;5.83;;;1.30;99.90;;;;;;5101275;28;20218;-90
2022/01/15 00:45:05;;;;;;;18.13;6.07;;;1.40;99.90;;;;;;5084602;28;20159;-85
2022/01/15 00:47:31;;;;;;;15.73;6.37;;;;;;;;;;5067556;28;20161;-83
2022/01/15 00:50:02;;;;;;;16.90;5.80;;;1.30;99.90;;;;;;5083775;28;20163;-84
2022/01/15 00:52:28;;;;;;;12.40;4.30;;;;;;;;;;5100668;28;20210;-84
2022/01/15 00:54:54;;;;;;;15.03;5.17;;;1.20;99.90;;;;;;5100006;28;20175;-85
2022/01/15 00:57:21;;;;;;;15.83;6.17;;;1.20;99.90;;;;;;5076546;28;20179;-85
2022/01/15 00:59:47;;;;;;;15.27;5.03;;;;;;;;;;5075952;28;20183;-84
2022/01/15 01:02:13;;;;;;;12.90;4.13;;;;;;;;;;5057959;28;20208;-84
2022/01/15 01:04:39;;;;;;;10.10;4.30;;;;;;;;;;5075867;28;20194;-85
2022/01/15 01:07:05;;;;;;;16.80;4.87;;;;;;;;;;5076128;28;20182;-85
2022/01/15 01:09:50;;;;;;;10.93;4.80;;;;;;;;;;5058063;28;20239;-84
2022/01/15 01:12:45;;;;;;;14.70;5.57;;;;;;;;;;5075672;28;20270;-85
2022/01/15 01:23:08;;;;;;;10.90;4.50;;;1.10;99.90;;;;;;5075481;28;20207;-84
2022/01/15 01:25:40;;;;;;;12.30;3.70;;;;;;;;;;5057754;28;20309;-85
2022/01/15 01:28:11;;;;;;;15.47;5.07;;;;;;;;;;5058127;28;20273;-84
2022/01/15 01:31:05;;;;;;;13.23;4.90;;;;;;;;;;5075785;28;20191;-85
2022/01/15 01:38:44;;;;;;;6.47;3.20;;;;;;;;;;5075518;28;20240;-85
2022/01/15 01:41:18;;;;;;;15.57;4.33;;;;;;;;;;5058658;28;20160;-85
2022/01/15 01:43:56;;;;;;;8.43;3.97;;;1.00;99.90;;;;;;5041712;28;20561;-85
2022/01/15 01:48:51;;;;;;;12.77;5.40;;;;;;;;;;5057496;28;20289;-85
2022/01/15 01:51:29;;;;;;;14.53;3.47;;;0.90;99.90;;;;;;5075119;28;20175;-85
2022/01/15 01:53:57;;;;;;;12.57;3.87;;;1.00;99.90;;;;;;5075132;28;20163;-85
2022/01/15 01:56:23;;;;;;;14.10;4.70;;;;;;;;;;5057144;28;20237;-85
2022/01/15 01:58:49;;;;;;;10.30;4.33;;;;;;;;;;5074711;28;20621;-86
2022/01/15 02:01:15;;;;;;;12.27;5.00;;;;;;;;;;5074727;28;20639;-84
2022/01/15 02:03:41;;;;;;;10.67;4.40;;;;;;;;;;5074924;28;20203;-84
2022/01/15 02:06:07;;;;;;;10.83;4.30;;;;;;;;;;5056752;28;20187;-85
2022/01/15 02:08:34;;;;;;;13.90;4.67;;;;;;;;;;5056804;28;20657;-85
2022/01/15 02:11:05;;;;;;;11.47;3.97;;;0.80;99.90;;;;;;5056547;28;20592;-84
2022/01/15 02:13:32;;;;;;;10.07;3.80;;;0.90;99.90;;;;;;5074817;28;20163;-85
2022/01/15 02:15:59;;;;;;;8.17;3.37;;;0.80;99.90;;;;;;5056475;28;20190;-84
2022/01/15 02:18:27;;;;;;;14.23;4.03;;;0.80;99.90;;;;;;5074724;28;20292;-85
2022/01/15 02:23:52;;;;;;;12.77;4.70;;;0.70;99.90;;;;;;5036791;28;20220;-86
2022/01/15 02:26:24;;;;;;;8.33;3.33;;;1.00;99.90;;;;;;5056611;28;20296;-85
2022/01/15 02:28:58;;;;;;;7.37;3.73;;;0.40;99.90;;;;;;5074353;28;20186;-86
2022/01/15 02:31:26;;;;;;;13.87;4.87;;;0.60;99.90;;;;;;5056670;28;20183;-85
2022/01/15 02:33:54;;;;;;;11.07;4.00;;;0.60;99.90;;;;;;5074068;28;20292;-85
2022/01/15 02:36:25;;;;;;;15.17;4.00;;;0.30;99.90;;;;;;5073920;28;20182;-86
2022/01/15 02:38:51;;;;;;;9.80;4.30;;;;;;;;;;5073874;28;20253;-87
2022/01/15 02:41:28;;;;;;;12.63;3.03;;;0.50;99.90;;;;;;5055720;28;20206;-86
2022/01/15 02:43:54;;;;;;;12.50;3.80;;;;;;;;;;5056060;28;20543;-85
2022/01/15 02:48:58;;;;;;;11.40;4.77;;;0.60;99.90;;;;;;5073727;28;20173;-85
2022/01/15 02:51:26;;;;;;;11.13;4.23;;;0.70;99.90;;;;;;5074107;28;20644;-86
2022/01/15 02:53:55;;;;;;;9.80;3.43;;;;;;;;;;5056173;28;20190;-87
2022/01/15 02:56:26;;;;;;;18.43;4.00;;;0.30;99.90;;;;;;5073977;28;20230;-85
2022/01/15 02:58:52;;;;;;;13.13;4.10;;;;;;;;;;5074174;28;20191;-86
2022/01/15 03:01:18;;;;;;;7.13;3.53;;;;;;;;;;5039342;28;20189;-86
2022/01/15 03:03:44;;;;;;;14.13;4.57;;;;;;;;;;5073348;28;20622;-85
2022/01/15 03:06:18;;;;;;;10.43;3.57;;;0.80;99.90;;;;;;5055567;28;20210;-85
2022/01/15 03:08:45;;;;;;;5.77;2.53;;;0.50;99.90;;;;;;5073498;28;20527;-86
2022/01/15 03:11:12;;;;;;;12.57;4.20;;;0.50;99.90;;;;;;5073469;28;20172;-87
2022/01/15 03:13:40;;;;;;;12.80;3.53;;;0.50;99.90;;;;;;5073678;28;20183;-87
2022/01/15 03:16:08;;;;;;;13.27;3.50;;;0.40;99.90;;;;;;5055024;28;20594;-87
2022/01/15 03:18:34;;;;;;;9.20;3.43;;;;;;;;;;5055704;28;20203;-87
2022/01/15 03:21:00;;;;;;;10.20;3.53;;;;;;;;;;5055554;28;20211;-86
2022/01/15 03:23:26;;;;;;;18.13;4.73;;;;;;;;;;5073084;28;20235;-85
2022/01/15 03:25:52;;;;;;;9.87;4.30;;;;;;;;;;5055652;28;20194;-86
2022/01/15 03:28:18;;;;;;;14.00;3.47;;;;;;;;;;5055154;28;20209;-86
2022/01/15 03:30:45;;;;;;;14.93;4.00;;;;;;;;;;5055421;28;20190;-86
2022/01/15 03:33:11;;;;;;;9.47;3.00;;;;;;;;;;5055120;28;20208;-85
2022/01/15 03:35:37;;;;;;;12.47;3.97;;;0.40;99.90;;;;;;5055486;28;20549;-84
2022/01/15 03:38:05;;;;;;;13.30;4.10;;;0.30;99.90;;;;;;5073014;28;20242;-85
2022/01/15 03:40:31;;;;;;;11.50;3.67;;;;;;;;;;5073114;28;20178;-85
2022/01/15 03:42:57;;;;;;;7.03;3.63;;;;;;;;;;5055150;28;20735;-85
2022/01/15 03:45:23;;;;;;;14.30;4.27;;;;;;;;;;5072994;28;20188;-85
2022/01/15 03:47:49;;;;;;;15.20;3.03;;;;;;;;;;5055225;28;20229;-86
2022/01/15 03:50:16;;;;;;;11.50;3.60;;;0.30;99.90;;;;;;5054857;28;20615;-85
2022/01/15 03:52:43;;;;;;;9.53;3.63;;;;;;;;;;5038828;28;20581;-86
2022/01/15 03:55:11;;;;;;;9.93;3.13;;;0.30;99.90;;;;;;5058440;28;20211;-86
2022/01/15 03:57:37;;;;;;;16.90;4.33;;;0.40;99.90;;;;;;5059426;28;20184;-86
2022/01/15 04:00:09;;;;;;;14.60;3.57;;;0.80;99.90;;;;;;5059120;28;20175;-87
2022/01/15 04:02:35;;;;;;;11.23;3.97;;;;;;;;;;5059196;28;20271;-88
2022/01/15 04:05:01;;;;;;;11.93;4.20;;;;;;;;;;5059226;28;20218;-86
2022/01/15 04:07:27;;;;;;;9.57;3.10;;;;;;;;;;5059161;28;20207;-88
2022/01/15 04:09:53;;;;;;;11.77;4.00;;;;;;;;;;5059720;28;20187;-86
2022/01/15 04:12:19;;;;;;;14.60;3.93;;;;;;;;;;5042864;28;20188;-88
2022/01/15 04:14:45;;;;;;;17.00;3.97;;;;;;;;;;5059156;28;20636;-88
2022/01/15 04:17:11;;;;;;;12.30;3.83;;;;;;;;;;5042261;28;20188;-87
2022/01/15 04:19:40;;;;;;;13.33;3.33;;;;;;;;;;5076654;28;20182;-87
2022/01/15 04:22:06;;;;;;;15.47;4.10;;;;;;;;;;5076493;28;20210;-87
2022/01/15 04:24:32;;;;;;;14.30;4.13;;;;;;;;;;5059393;28;20183;-87
2022/01/15 04:26:58;;;;;;;12.07;3.47;;;;;;;;;;5076920;28;20179;-87
2022/01/15 04:29:24;;;;;;;11.40;3.70;;;;;;;;;;5058906;28;20181;-87
2022/01/15 04:31:51;;;;;;;8.77;3.30;;;;;;;;;;5058817;28;20214;-87
2022/01/15 04:34:28;;;;;;;6.63;3.60;;;0.50;99.90;;;;;;5058772;28;20211;-87
2022/01/15 04:37:03;;;;;;;10.50;3.17;;;0.20;99.90;;;;;;5058777;28;20233;-86
2022/01/15 04:39:29;;;;;;;14.37;4.00;;;;;;;;;;5076546;28;20230;-86
2022/01/15 04:41:55;;;;;;;8.77;3.57;;;;;;;;;;5058376;28;20237;-86
2022/01/15 04:44:21;;;;;;;6.77;3.20;;;;;;;;;;5058097;28;20184;-86
2022/01/15 04:46:47;;;;;;;11.30;4.03;;;;;;;;;;5041881;28;20673;-87
2022/01/15 04:49:13;;;;;;;15.60;3.60;;;;;;;;;;5058643;28;20262;-87
2022/01/15 04:51:39;;;;;;;14.07;3.43;;;;;;;;;;5058439;28;20279;-87
2022/01/15 04:54:05;;;;;;;12.90;3.10;;;;;;;;;;5058155;28;20187;-86
2022/01/15 04:56:32;;;;;;;4.20;2.73;;;;;;;;;;5041421;28;20193;-87
2022/01/15 04:58:58;;;;;;;11.67;3.17;;;;;;;;;;5076036;28;20178;-87
2022/01/15 05:01:24;;;;;;;12.73;3.50;;;;;;;;;;5075730;28;20200;-87
2022/01/15 05:03:50;;;;;;;8.33;3.47;;;;;;;;;;5058170;28;20221;-86
2022/01/15 05:06:16;;;;;;;15.07;2.63;;;;;;;;;;5057402;28;20187;-86
2022/01/15 05:08:44;;;;;;;11.40;3.67;;;;;;;;;;5058139;28;20197;-87
2022/01/15 05:14:09;;;;;;;8.87;3.50;;;;;;;;;;5008142;28;20527;-87
2022/01/15 05:16:35;;;;;;;20.63;4.37;;;;;;;;;;5075497;28;20268;-86
2022/01/15 05:19:01;;;;;;;17.37;3.40;;;;;;;;;;5057666;28;20206;-87
2022/01/15 05:21:27;;;;;;;10.23;3.43;;;;;;;;;;5040757;28;20702;-86
2022/01/15 05:23:53;;;;;;;18.70;3.63;;;;;;;;;;5057540;28;20298;-86
2022/01/15 05:26:19;;;;;;;12.50;4.47;;;;;;;;;;5057239;28;20230;-87
2022/01/15 05:28:45;;;;;;;15.67;4.07;;;;;;;;;;5057541;28;20225;-87
2022/01/15 05:31:12;;;;;;;13.73;4.00;;;;;;;;;;5057705;28;20596;-87
2022/01/15 05:33:38;;;;;;;12.27;3.80;;;;;;;;;;5074842;28;20263;-86
2022/01/15 05:36:04;;;;;;;13.70;3.23;;;0.00;99.90;;;;;;5057461;28;20277;-86
2022/01/15 05:38:29;;;;;;;15.20;4.00;;;0.10;99.90;;;;;;5074826;28;20581;-87
2022/01/15 05:40:55;;;;;;;10.57;3.37;;;0.00;99.90;;;;;;5057379;28;20182;-86
2022/01/15 05:43:21;;;;;;;11.00;3.07;;;0.10;99.90;;;;;;5056891;28;20209;-86
2022/01/15 05:45:47;;;;;;;13.27;4.23;;;;;;;;;;5075211;28;20582;-87
2022/01/15 05:48:13;;;;;;;17.03;4.23;;;;;;;;;;5075377;28;20250;-86
2022/01/15 05:50:39;;;;;;;18.60;4.50;;;;;;;;;;5040346;28;20216;-86
2022/01/15 05:53:05;;;;;;;19.63;4.03;;;;;;;;;;5040524;28;20226;-87
2022/01/15 05:55:31;;;;;;;11.77;4.23;;;;;;;;;;5074539;28;20537;-87
2022/01/15 05:57:57;;;;;;;13.93;3.63;;;;;;;;;;5057019;28;20646;-86
2022/01/15 06:00:23;;;;;;;8.33;2.53;;;;;;;;;;5056061;28;20191;-87
2022/01/15 06:02:49;;;;;;;21.00;3.60;;;;;;;;;;5017200;28;20214;-86
2022/01/15 06:05:15;;;;;;;8.87;3.53;;;;;;;;;;5035880;28;20221;-86
2022/01/15 06:07:41;;;;;;;13.27;3.93;;;;;;;;;;5033096;28;20230;-85
2022/01/15 06:10:07;;;;;;;14.27;3.33;;;-0.30;99.90;;;;;;5053117;28;20187;-86
2022/01/15 06:12:42;;;;;;;15.27;4.03;;;;;;;;;;5032882;28;20205;-86
2022/01/15 06:15:08;;;;;;;11.13;4.43;;;-0.40;99.90;;;;;;5034927;28;20523;-87
2022/01/15 06:17:34;;;;;;;22.03;4.83;;;;;;;;;;5052036;28;20600;-86
2022/01/15 06:20:00;;;;;;;15.97;3.97;;;;;;;;;;5019165;28;20188;-86
2022/01/15 06:22:26;;;;;;;9.43;3.90;;;;;;;;;;5069749;28;20211;-87
2022/01/15 06:24:52;;;;;;;14.60;3.57;;;;;;;;;;5020382;28;20279;-85
2022/01/15 06:27:19;;;;;;;12.23;4.43;;;;;;;;;;5053929;28;20248;-85
2022/01/15 06:29:45;;;;;;;12.00;3.37;;;;;;;;;;5053394;28;20193;-86
2022/01/15 06:32:11;;;;;;;9.20;3.63;;;;;;;;;;5035395;28;20210;-87
2022/01/15 06:34:38;;;;;;;23.23;3.90;;;;;;;;;;5052176;28;20196;-87
2022/01/15 06:37:05;;;;;;;16.30;4.53;;;;;;;;;;5019487;28;20198;-87
2022/01/15 06:39:34;;;;;;;21.10;4.40;;;-0.10;99.90;;;;;;5053415;28;20227;-86
2022/01/15 06:42:01;;;;;;;23.30;4.97;;;-0.10;99.90;;;;;;5053868;28;20281;-89
2022/01/15 06:44:27;;;;;;;11.33;4.07;;;;;;;;;;5053186;28;20190;-88
2022/01/15 06:46:54;;;;;;;21.37;4.70;;;;;;;;;;5035764;28;20194;-87
2022/01/15 06:49:20;;;;;;;9.20;4.00;;;;;;;;;;5053624;28;20819;-90
2022/01/15 06:51:46;;;;;;;13.87;4.00;;;;;;;;;;5028431;28;20231;-86
2022/01/15 06:54:13;;;;;;;16.03;3.50;;;;;;;;;;5035227;28;20183;-83
2022/01/15 06:56:39;;;;;;;11.10;4.43;;;;;;;;;;5035778;28;20187;-85
2022/01/15 06:59:05;;;;;;;9.63;4.23;;;;;;;;;;5032069;28;20212;-85
2022/01/15 07:01:31;;;;;;;13.63;4.40;;;;;;;;;;5061163;28;20229;-85
2022/01/15 07:03:57;;;;;;;9.63;3.33;;;;;;;;;;5062766;28;20198;-83
2022/01/15 07:06:23;;;;;;;13.77;4.33;;;;;;;;;;5066875;28;20197;-84
2022/01/15 07:08:50;;;;;;;18.50;5.07;;;-0.10;99.90;;;;;;5036736;28;20267;-86
2022/01/15 07:11:16;;;;;;;14.57;4.50;;;;;;;;;;5044169;28;20195;-86
2022/01/15 07:13:42;;;;;;;8.03;4.43;;;;;;;;;;5029577;28;20169;-88
2022/01/15 07:16:08;;;;;;;22.73;6.17;;;;;;;;;;5078607;28;20238;-87
2022/01/15 07:18:34;;;;;;;12.30;3.33;;;;;;;;;;5049642;28;20182;-86
2022/01/15 07:21:00;;;;;;;8.27;3.23;;;;;;;;;;5072326;28;20172;-86
2022/01/15 07:23:26;;;;;;;14.17;4.67;;;;;;;;;;5056494;28;20205;-87
2022/01/15 07:25:52;;;;;;;15.60;4.20;;;;;;;;;;5059533;28;20195;-85
2022/01/15 07:28:19;;;;;;;16.80;5.37;;;;;;;;;;5051870;28;20199;-84
2022/01/15 07:30:45;;;;;;;18.50;5.13;;;;;;;;;;5068017;28;20171;-83
2022/01/15 07:33:12;;;;;;;13.53;4.70;;;0.20;99.90;;;;;;5090632;28;20222;-86
2022/01/15 07:35:38;;;;;;;16.43;4.50;;;;;;;;;;5077862;28;20156;-87
2022/01/15 07:38:04;;;;;;;7.77;4.00;;;;;;;;;;5060302;28;20218;-87
2022/01/15 07:40:31;;;;;;;13.43;4.33;;;;;;;;;;5076866;28;20191;-87
2022/01/15 07:42:57;;;;;;;16.67;4.97;;;;;;;;;;5043302;28;20235;-86
2022/01/15 07:45:23;;;;;;;17.57;4.80;;;;;;;;;;5059946;28;20196;-87
2022/01/15 07:47:49;;;;;;;18.10;5.33;;;;;;;;;;5059551;28;20215;-87
2022/01/15 07:50:23;;;;;;;8.97;4.27;;;0.30;99.90;;;;;;5064319;28;20204;-86
2022/01/15 07:52:49;;;;;;;19.60;5.17;;;;;;;;;;5052067;28;20194;-84
2022/01/15 07:55:15;;;;;;;17.93;6.83;;;;;;;;;;5018373;28;20188;-85
2022/01/15 07:57:43;;;;;;;19.33;5.63;;;;;;;;;;5034221;28;20198;-85
2022/01/15 08:00:10;;;;;;;16.00;5.07;;;;;;;;;;5035158;28;20206;-85
2022/01/15 08:02:36;;;;;;;14.20;4.43;;;;;;;;;;5017727;28;20625;-85
2022/01/15 08:05:02;;;;;;;17.07;4.73;;;;;;;;;;5052130;28;20207;-84
2022/01/15 08:07:28;;;;;;;22.13;7.43;;;;;;;;;;5051833;28;20217;-86
2022/01/15 08:09:54;;;;;;;18.37;6.97;;;;;;;;;;5054717;28;20173;-84
2022/01/15 08:12:22;;;;;;;16.53;6.43;;;;;;;;;;5034016;28;20517;-84
2022/01/15 08:14:49;;;;;;;21.40;6.07;;;;;;;;;;5051810;28;20179;-84
2022/01/15 08:17:15;;;;;;;11.80;4.63;;;;;;;;;;5052445;28;20454;-85
2022/01/15 08:19:41;;;;;;;13.87;5.80;;;;;;;;;;5033794;28;20218;-83
2022/01/15 08:22:07;;;;;;;18.20;7.00;;;;;;;;;;5033974;28;20640;-82
2022/01/15 08:24:33;;;;;;;15.57;5.57;;;;;;;;;;5051892;28;20172;-84
2022/01/15 08:26:59;;;;;;;19.47;7.40;;;;;;;;;;5051820;28;20177;-83
2022/01/15 08:29:25;;;;;;;15.80;5.83;;;;;;;;;;5054302;28;20195;-82
2022/01/15 08:31:51;;;;;;;18.53;6.70;;;;;;;;;;5051469;28;20190;-81
2022/01/15 08:34:17;;;;;;;18.23;6.07;;;;;;;;;;5054085;28;20209;-82
2022/01/15 08:36:43;;;;;;;18.03;6.63;;;;;;;;;;5072324;28;20535;-83
2022/01/15 08:39:09;;;;;;;16.27;5.43;;;;;;;;;;5035857;28;20235;-82
2022/01/15 08:41:36;;;;;;;14.23;6.27;;;;;;;;;;5056852;28;20200;-82
2022/01/15 08:44:02;;;;;;;24.20;7.23;;;;;;;;;;5054894;28;20274;-82
2022/01/15 08:46:28;;;;;;;14.60;5.73;;;;;;;;;;5056355;28;20175;-81
2022/01/15 08:48:54;;;;;;;24.67;8.03;;;;;;;;;;5055998;28;20172;-82
2022/01/15 08:51:21;;;;;;;15.97;6.93;;;;;;;;;;5054793;28;20191;-81
2022/01/15 08:53:47;;;;;;;18.07;7.53;;;;;;;;;;5054526;28;20184;-82
2022/01/15 08:56:13;;;;;;;15.03;5.83;;;;;;;;;;5055044;28;20176;-83
2022/01/15 08:58:39;;;;;;;18.47;7.73;;;;;;;;;;5055107;28;20263;-82
2022/01/15 09:01:05;;;;;;;25.33;10.27;;;;;;;;;;5054692;28;20207;-83
2022/01/15 09:03:33;;;;;;;17.17;8.63;;;0.70;99.90;;;;;;5054669;28;20218;-83
2022/01/15 09:06:00;;;;;;;26.37;8.73;;;;;;;;;;5037911;28;20180;-81
2022/01/15 09:08:27;;;;;;;15.10;6.83;;;;;;;;;;5054744;28;20216;-83
2022/01/15 09:10:53;;;;;;;15.63;6.83;;;0.90;99.90;;;;;;5055780;28;20180;-84
2022/01/15 09:13:19;;;;;;;9.87;6.23;;;;;;;;;;5055785;28;20179;-82
2022/01/15 09:15:45;;;;;;;13.73;7.57;;;;;;;;;;5054442;28;20646;-82
2022/01/15 09:18:12;;;;;;;20.03;7.73;;;;;;;;;;5054136;28;20184;-82
2022/01/15 09:20:38;;;;;;;21.63;10.37;;;;;;;;;;5037997;28;20525;-83
2022/01/15 09:23:04;;;;;;;14.83;6.80;;;;;;;;;;5055083;28;20262;-83
2022/01/15 09:25:30;;;;;;;19.27;6.73;;;;;;;;;;5055699;28;20262;-83
2022/01/15 09:30:41;;;;;;;18.87;6.53;;;;;;;;;;5055334;28;20175;-84
2022/01/15 09:33:07;;;;;;;19.13;8.27;;;;;;;;;;5037394;28;20210;-84
2022/01/15 09:35:33;;;;;;;17.50;7.27;;;;;;;;;;5054096;28;20187;-83
2022/01/15 09:38:00;;;;;;;17.73;6.80;;;;;;;;;;5060474;28;20231;-84
2022/01/15 09:40:27;;;;;;;16.23;7.27;;;;;;;;;;5058150;28;20633;-84
2022/01/15 09:42:53;;;;;;;18.83;7.53;;;;;;;;;;5057479;28;20306;-84
2022/01/15 09:45:20;;;;;;;18.33;8.00;;;1.00;99.90;;;;;;5057289;28;20183;-84
2022/01/15 09:47:58;;;;;;;17.10;8.73;;;1.00;99.90;;;;;;5075231;28;20258;-84
2022/01/15 09:50:24;;;;;;;21.37;8.37;;;1.00;99.90;;;;;;5074858;28;20167;-83
2022/01/15 09:52:51;;;;;;;17.37;7.07;;;;;;;;;;5056382;28;20194;-84
2022/01/15 09:55:17;;;;;;;16.90;7.00;;;;;;;;;;5056648;28;20241;-84
2022/01/15 09:57:43;;;;;;;21.87;6.57;;;;;;;;;;5056416;28;20632;-83
2022/01/15 10:00:10;;;;;;;14.80;7.90;;;;;;;;;;5054526;28;20194;-83
2022/01/15 10:02:40;;;;;;;16.90;5.80;;;1.10;99.90;;;;;;5045993;28;20212;-84
2022/01/15 10:05:06;;;;;;;25.37;9.43;;;;;;;;;;5046935;28;20176;-84
2022/01/15 10:07:32;;;;;;;18.87;8.07;;;;;;;;;;5060269;28;20182;-85
2022/01/15 10:10:14;;;;;;;14.93;7.07;;;1.20;99.90;;;;;;5045598;28;20206;-85
2022/01/15 10:12:42;;;;;;;15.13;7.63;;;;;;;;;;5062267;28;20187;-84
2022/01/15 10:15:08;;;;;;;20.17;7.27;;;1.20;99.90;;;;;;5063330;28;20191;-85
2022/01/15 10:17:36;;;;;;;23.87;5.83;;;1.30;99.90;;;;;;5042223;28;20180;-84
2022/01/15 10:20:16;;;;;;;17.20;7.63;;;1.40;99.90;;;;;;5063372;28;20179;-85
2022/01/15 10:22:47;;;;;;;19.10;7.63;;;1.30;99.90;;;;;;5043919;28;20325;-83
2022/01/15 10:25:21;;;;;;;16.90;6.73;;;;;;;;;;5044079;28;20183;-89
2022/01/15 10:27:52;;;;;;;12.37;5.60;;;1.40;99.90;;;;;;5046077;28;20175;-86
2022/01/15 10:30:18;;;;;;;16.43;7.30;;;;;;;;;;5059824;28;20160;-86
2022/01/15 10:32:56;;;;;;;11.50;5.67;;;;;;;;;;5046643;28;20188;-86
2022/01/15 10:35:23;;;;;;;17.63;6.47;;;;;;;;;;5074207;28;20189;-87
2022/01/15 10:37:55;;;;;;;16.27;6.33;;;;;;;;;;5046279;28;20237;-87
2022/01/15 10:40:25;;;;;;;13.87;6.20;;;;;;;;;;5063527;28;20233;-86
2022/01/15 10:42:55;;;;;;;17.90;6.73;;;;;;;;;;5044298;28;20631;-87
2022/01/15 10:45:21;;;;;;;16.77;6.47;;;;;;;;;;5041643;28;20192;-88
2022/01/15 10:47:49;;;;;;;16.37;5.87;;;;;;;;;;5037472;28;20271;-88
2022/01/15 10:50:19;;;;;;;17.40;6.40;;;;;;;;;;5042261;28;20253;-90
2022/01/15 10:52:46;;;;;;;11.63;6.27;;;;;;;;;;5043016;28;20194;-86
2022/01/15 10:55:13;;;;;;;20.40;6.67;;;;;;;;;;5044956;28;20198;-88
2022/01/15 10:57:43;;;;;;;18.57;8.30;;;;;;;;;;5042567;28;20223;-87
2022/01/15 11:00:11;;;;;;;16.83;6.73;;;;;;;;;;5043208;28;20178;-88
2022/01/15 11:02:38;;;;;;;14.73;7.70;;;;;;;;;;5044550;28;20312;-87
2022/01/15 11:05:20;;;;;;;14.83;5.33;;;1.50;99.90;;;;;;5059596;28;20262;-88
2022/01/15 11:07:46;;;;;;;16.37;6.80;;;;;;;;;;5044185;28;20179;-86
2022/01/15 11:10:12;;;;;;;20.87;8.80;;;;;;;;;;5063502;28;20237;-87
2022/01/15 11:12:41;;;;;;;25.03;9.03;;;1.50;99.90;;;;;;5058900;28;20188;-86
2022/01/15 11:15:08;;;;;;;23.00;8.23;;;;;;;;;;5063063;28;20180;-87
2022/01/15 11:17:37;;;;;;;11.77;6.50;;;;;;;;;;5030610;28;20180;-87
2022/01/15 11:20:05;;;;;;;19.63;9.60;;;1.60;99.90;;;;;;5045101;28;20180;-87
2022/01/15 11:22:36;;;;;;;17.00;7.67;;;;;;;;;;5042482;28;20244;-85
2022/01/15 11:25:04;;;;;;;17.83;8.57;;;;;;;;;;5029956;28;20199;-91
2022/01/15 11:27:31;;;;;;;18.90;7.60;;;;;;;;;;5042260;28;20218;-91
2022/01/15 11:30:15;;;;;;;13.17;7.47;;;;;;;;;;5050009;28;20168;-92
2022/01/15 11:32:43;;;;;;;17.73;8.63;;;;;;;;;;5063228;28;20530;-90
2022/01/15 11:35:12;;;;;;;23.60;8.73;;;;;;;;;;5074141;28;20200;-88
2022/01/15 11:37:57;;;;;;;16.17;7.63;;;;;;;;;;5065021;28;20261;-93
2022/01/15 11:40:48;;;;;;;14.60;8.10;;;;;;;;;;5060155;28;20175;-91
2022/01/15 11:43:33;;;;;;;17.37;9.30;;;;;;;;;;5085560;28;20222;-91
2022/01/15 11:46:04;;;;;;;24.53;10.13;;;;;;;;;;5059794;28;20163;-89
2022/01/15 11:48:33;;;;;;;23.37;8.63;;;;;;;;;;5063243;28;20191;-90
2022/01/15 11:51:14;;;;;;;14.47;6.50;;;;;;;;;;5051448;28;20179;-94
2022/01/15 11:53:53;;;;;;;19.40;9.00;;;;;;;;;;5050583;28;20237;-89
2022/01/15 11:56:22;;;;;;;18.60;8.17;;;;;;;;;;5064644;28;20196;-89
2022/01/15 11:58:48;;;;;;;14.83;6.33;;;;;;;;;;5063829;28;20199;-92
2022/01/15 12:01:41;;;;;;;18.93;7.87;;;2.10;99.90;;;;;;5069809;28;20201;-90
2022/01/15 12:04:27;;;;;;;16.17;8.10;;;2.00;99.90;;;;;;5045040;28;20282;-91
2022/01/15 12:07:02;;;;;;;19.13;8.33;;;;;;;;;;5054469;28;20171;-91
2022/01/15 12:09:41;;;;;;;15.63;8.10;;;;;;;;;;5038690;28;20192;-93
2022/01/15 12:12:31;;;;;;;18.43;7.50;;;;;;;;;;5055814;28;20580;-92
2022/01/15 12:14:57;;;;;;;23.00;8.67;;;;;;;;;;5045227;28;20190;-92
2022/01/15 12:17:38;;;;;;;18.73;9.20;;;1.70;99.90;;;;;;5051474;28;20187;-90
2022/01/15 12:20:06;;;;;;;23.70;8.47;;;;;;;;;;5070191;28;20240;-90
2022/01/15 12:22:45;;;;;;;17.80;7.30;;;;;;;;;;5068943;28;20210;-91
2022/01/15 12:25:12;;;;;;;19.10;7.63;;;;;;;;;;5071283;28;20315;-92
2022/01/15 12:27:46;;;;;;;18.77;8.47;;;1.60;99.90;;;;;;5067236;28;20195;-89
2022/01/15 12:30:20;;;;;;;20.47;7.10;;;1.50;99.90;;;;;;5056187;28;20758;-91
2022/01/15 12:32:53;;;;;;;20.23;7.93;;;1.60;99.90;;;;;;5045006;28;20188;-92
2022/01/15 12:35:51;;;;;;;13.20;7.00;;;1.60;99.90;;;;;;5069324;28;20182;-89
2022/01/15 12:38:44;;;;;;;26.47;7.37;;;1.60;99.90;;;;;;5068967;28;20298;-88
2022/01/15 12:41:11;;;;;;;18.43;7.70;;;;;;;;;;5079305;28;20184;-89
2022/01/15 12:43:40;;;;;;;17.00;6.77;;;1.50;99.90;;;;;;5048765;28;20207;-93
2022/01/15 12:46:11;;;;;;;18.10;8.87;;;1.50;99.90;;;;;;5053148;28;20179;-90
2022/01/15 12:48:40;;;;;;;14.90;6.90;;;1.50;99.90;;;;;;5065613;28;20175;-89
2022/01/15 12:51:11;;;;;;;17.07;7.93;;;1.50;99.90;;;;;;5046375;28;20236;-92
2022/01/15 12:53:42;;;;;;;15.50;6.87;;;1.50;99.90;;;;;;5030370;28;20187;-88
2022/01/15 12:56:13;;;;;;;14.10;6.50;;;1.50;99.90;;;;;;5053837;28;20198;-90
2022/01/15 12:58:39;;;;;;;19.50;7.23;;;;;;;;;;5058104;28;20253;-91
2022/01/15 13:01:09;;;;;;;15.80;6.70;;;1.50;99.90;;;;;;5070239;28;20236;-90
2022/01/15 13:03:39;;;;;;;15.57;6.93;;;;;;;;;;5050374;28;20668;-90
2022/01/15 13:06:06;;;;;;;20.43;8.40;;;;;;;;;;5048807;28;20251;-90
2022/01/15 13:08:37;;;;;;;17.70;8.13;;;;;;;;;;5051005;28;20209;-89
2022/01/15 13:11:07;;;;;;;20.00;9.30;;;;;;;;;;5051747;28;20200;-93
2022/01/15 13:13:33;;;;;;;15.03;9.10;;;;;;;;;;5054047;28;20210;-90
2022/01/15 13:16:11;;;;;;;;;;;;;;;;;;;;;
2022/01/15 13:18:39;;;;;;;15.57;5.83;;;;;;;;;;5075775;28;20250;-89
2022/01/15 13:21:09;;;;;;;16.60;8.73;;;1.50;99.90;;;;;;5054588;28;20188;-88
2022/01/15 13:23:39;;;;;;;17.13;7.33;;;;;;;;;;5057016;28;20198;-89
2022/01/15 13:26:06;;;;;;;23.27;7.37;;;;;;;;;;5053535;28;20172;-90
2022/01/15 13:28:34;;;;;;;18.03;7.73;;;;;;;;;;5057676;28;20189;-86
2022/01/15 13:31:10;;;;;;;15.10;8.20;;;;;;;;;;5047168;28;20283;-89
2022/01/15 13:33:44;;;;;;;16.20;6.70;;;;;;;;;;5051612;28;20187;-87
2022/01/15 13:36:14;;;;;;;12.13;5.50;;;;;;;;;;5055365;28;20190;-89
2022/01/15 13:38:42;;;;;;;18.97;5.80;;;;;;;;;;5040918;28;20223;-88
2022/01/15 13:41:15;;;;;;;17.53;5.60;;;;;;;;;;5054275;28;20178;-87
2022/01/15 13:43:44;;;;;;;18.07;6.33;;;;;;;;;;5051051;28;20212;-88
2022/01/15 13:46:10;;;;;;;11.47;5.20;;;;;;;;;;5059133;28;20187;-92
2022/01/15 13:48:37;;;;;;;28.17;11.73;;;;;;;;;;5060029;28;20270;-89
2022/01/15 13:53:57;;;;;;;16.63;7.53;;;;;;;;;;5071273;28;20155;-90
2022/01/15 13:56:23;;;;;;;14.90;7.00;;;;;;;;;;5079769;28;20176;-88
2022/01/15 13:59:01;;;;;;;10.20;5.80;;;1.50;99.90;;;;;;5062624;28;20183;-88
2022/01/15 14:01:30;;;;;;;13.87;6.37;;;1.50;99.90;;;;;;5058319;28;20169;-89
2022/01/15 14:03:58;;;;;;;16.30;6.77;;;1.50;99.90;;;;;;5058511;28;20216;-87
2022/01/15 14:06:24;;;;;;;19.53;7.93;;;;;;;;;;5059170;28;20215;-89
2022/01/15 14:09:00;;;;;;;18.03;6.87;;;1.50;99.90;;;;;;5058191;28;20164;-89
2022/01/15 14:11:27;;;;;;;13.67;6.10;;;;;;;;;;5058910;28;20162;-87
2022/01/15 14:14:07;;;;;;;19.40;7.67;;;1.50;99.90;;;;;;5064628;28;20181;-87
2022/01/15 14:16:33;;;;;;;16.17;6.50;;;;;;;;;;5065915;28;20190;-87
2022/01/15 14:19:13;;;;;;;12.63;5.10;;;;;;;;;;5046416;28;20264;-87
2022/01/15 14:21:41;;;;;;;12.57;5.93;;;;;;;;;;5059393;28;20177;-85
2022/01/15 14:24:22;;;;;;;12.97;4.83;;;1.50;99.90;;;;;;5055732;28;20214;-88
2022/01/15 14:26:54;;;;;;;18.03;4.90;;;1.50;99.90;;;;;;5058908;28;20188;-87
2022/01/15 14:29:20;;;;;;;10.83;5.33;;;;;;;;;;5032867;28;20192;-86
2022/01/15 14:31:46;;;;;;;10.20;5.33;;;;;;;;;;5036746;28;20261;-87
2022/01/15 14:34:12;;;;;;;10.53;4.57;;;;;;;;;;5037358;28;20191;-86
2022/01/15 14:36:38;;;;;;;11.67;4.47;;;;;;;;;;5020045;28;20188;-88